sensor_id;sensor_type;location;lat;lon;timestamp;temperature;humidity
16038;DHT22;8123;50.906;6.172;2022-08-11T00:00:34;20.20;99.90
16038;DHT22;8123;50.906;6.172;2022-08-11T00:03:10;19.80;99.90
16038;DHT22;8123;50.906;6.172;2022-08-11T00:05:54;19.70;99.90
16038;DHT22;8123;50.906;6.172;2022-08-11T00:08:31;19.80;99.90
16038;DHT22;8123;50.906;6.172;2022-08-11T00:11:03;19.70;99.90
16038;DHT22;8123;50.906;6.172;2022-08-11T00:13:44;19.70;99.90
16038;DHT22;8123;50.906;6.172;2022-08-11T00:16:22;19.60;99.90
16038;DHT22;8123;50.906;6.172;2022-08-11T00:18:52;19.60;99.90
16038;DHT22;8123;50.906;6.172;2022-08-11T00:21:20;19.60;99.90
16038;DHT22;8123;50.906;6.172;2022-08-11T00:23:53;19.50;99.90
16038;DHT22;8123;50.906;6.172;2022-08-11T00:26:20;19.50;99.90
16038;DHT22;8123;50.906;6.172;2022-08-11T00:28:46;19.50;99.90
16038;DHT22;8123;50.906;6.172;2022-08-11T00:31:30;19.40;99.90
16038;DHT22;8123;50.906;6.172;2022-08-11T00:33:58;19.40;99.90
16038;DHT22;8123;50.906;6.172;2022-08-11T00:36:38;19.30;99.90
16038;DHT22;8123;50.906;6.172;2022-08-11T00:39:07;19.30;99.90
16038;DHT22;8123;50.906;6.172;2022-08-11T00:41:39;19.30;99.90
16038;DHT22;8123;50.906;6.172;2022-08-11T00:44:31;19.20;99.90
16038;DHT22;8123;50.906;6.172;2022-08-11T00:52:32;19.00;99.90
16038;DHT22;8123;50.906;6.172;2022-08-11T00:55:41;18.90;99.90
16038;DHT22;8123;50.906;6.172;2022-08-11T01:06:50;18.70;99.90
16038;DHT22;8123;50.906;6.172;2022-08-11T01:09:39;18.70;99.90
16038;DHT22;8123;50.906;6.172;2022-08-11T01:20:07;18.50;99.90
16038;DHT22;8123;50.906;6.172;2022-08-11T01:45:57;18.30;99.90
16038;DHT22;8123;50.906;6.172;2022-08-11T01:48:35;18.30;99.90
16038;DHT22;8123;50.906;6.172;2022-08-11T01:54:16;18.30;99.90
16038;DHT22;8123;50.906;6.172;2022-08-11T01:57:06;18.30;99.90
16038;DHT22;8123;50.906;6.172;2022-08-11T01:59:44;18.30;99.90
16038;DHT22;8123;50.906;6.172;2022-08-11T02:22:30;18.10;99.90
16038;DHT22;8123;50.906;6.172;2022-08-11T02:33:43;17.90;99.90
16038;DHT22;8123;50.906;6.172;2022-08-11T02:36:20;17.90;99.90
16038;DHT22;8123;50.906;6.172;2022-08-11T02:39:02;17.80;99.90
16038;DHT22;8123;50.906;6.172;2022-08-11T02:41:56;17.80;99.90
16038;DHT22;8123;50.906;6.172;2022-08-11T02:56:20;17.70;99.90
16038;DHT22;8123;50.906;6.172;2022-08-11T02:59:13;17.60;99.90
16038;DHT22;8123;50.906;6.172;2022-08-11T03:08:17;17.60;99.90
16038;DHT22;8123;50.906;6.172;2022-08-11T03:14:15;17.50;99.90
16038;DHT22;8123;50.906;6.172;2022-08-11T03:17:36;17.50;99.90
16038;DHT22;8123;50.906;6.172;2022-08-11T03:26:04;17.40;99.90
16038;DHT22;8123;50.906;6.172;2022-08-11T03:34:11;17.40;99.90
16038;DHT22;8123;50.906;6.172;2022-08-11T03:39:28;17.40;99.90
16038;DHT22;8123;50.906;6.172;2022-08-11T03:44:58;17.30;99.90
16038;DHT22;8123;50.906;6.172;2022-08-11T03:53:17;17.30;99.90
16038;DHT22;8123;50.906;6.172;2022-08-11T04:02:07;17.20;99.90
16038;DHT22;8123;50.906;6.172;2022-08-11T04:07:28;17.10;99.90
16038;DHT22;8123;50.906;6.172;2022-08-11T04:16:42;17.00;99.90
16038;DHT22;8123;50.906;6.172;2022-08-11T04:19:31;17.00;99.90
16038;DHT22;8123;50.906;6.172;2022-08-11T04:36:34;17.00;99.90
16038;DHT22;8123;50.906;6.172;2022-08-11T05:13:04;17.40;99.90
16038;DHT22;8123;50.906;6.172;2022-08-11T05:15:57;17.50;99.90
16038;DHT22;8123;50.906;6.172;2022-08-11T05:18:50;17.60;99.90
16038;DHT22;8123;50.906;6.172;2022-08-11T05:21:36;17.70;99.90
16038;DHT22;8123;50.906;6.172;2022-08-11T05:24:40;17.80;99.90
16038;DHT22;8123;50.906;6.172;2022-08-11T05:27:37;17.90;99.90
16038;DHT22;8123;50.906;6.172;2022-08-11T05:30:27;17.90;99.90
16038;DHT22;8123;50.906;6.172;2022-08-11T05:33:29;18.00;99.90
16038;DHT22;8123;50.906;6.172;2022-08-11T05:39:01;18.00;99.90
16038;DHT22;8123;50.906;6.172;2022-08-11T05:41:47;18.10;99.90
16038;DHT22;8123;50.906;6.172;2022-08-11T05:44:33;18.20;99.90
16038;DHT22;8123;50.906;6.172;2022-08-11T05:47:26;18.20;99.90
16038;DHT22;8123;50.906;6.172;2022-08-11T05:50:11;18.20;99.90
16038;DHT22;8123;50.906;6.172;2022-08-11T05:52:57;18.30;99.90
16038;DHT22;8123;50.906;6.172;2022-08-11T05:55:43;18.30;99.90
16038;DHT22;8123;50.906;6.172;2022-08-11T05:58:36;18.40;99.90
16038;DHT22;8123;50.906;6.172;2022-08-11T06:01:03;18.40;99.90
16038;DHT22;8123;50.906;6.172;2022-08-11T06:03:32;18.50;99.90
16038;DHT22;8123;50.906;6.172;2022-08-11T06:06:22;18.60;99.90
16038;DHT22;8123;50.906;6.172;2022-08-11T06:08:49;18.60;99.90
16038;DHT22;8123;50.906;6.172;2022-08-11T06:11:19;18.70;99.90
16038;DHT22;8123;50.906;6.172;2022-08-11T06:13:45;18.80;99.90
16038;DHT22;8123;50.906;6.172;2022-08-11T06:16:13;18.90;99.90
16038;DHT22;8123;50.906;6.172;2022-08-11T06:18:46;19.00;99.90
16038;DHT22;8123;50.906;6.172;2022-08-11T06:21:13;19.00;99.90
16038;DHT22;8123;50.906;6.172;2022-08-11T06:23:41;19.10;99.90
16038;DHT22;8123;50.906;6.172;2022-08-11T06:26:09;19.20;99.90
16038;DHT22;8123;50.906;6.172;2022-08-11T06:28:36;19.20;99.90
16038;DHT22;8123;50.906;6.172;2022-08-11T06:31:15;19.30;99.90
16038;DHT22;8123;50.906;6.172;2022-08-11T06:36:30;19.40;99.90
16038;DHT22;8123;50.906;6.172;2022-08-11T06:41:53;19.70;99.90
16038;DHT22;8123;50.906;6.172;2022-08-11T06:44:48;19.80;99.90
16038;DHT22;8123;50.906;6.172;2022-08-11T06:47:16;19.80;99.90
16038;DHT22;8123;50.906;6.172;2022-08-11T06:49:46;19.90;99.90
16038;DHT22;8123;50.906;6.172;2022-08-11T06:52:35;20.00;99.90
16038;DHT22;8123;50.906;6.172;2022-08-11T06:55:13;20.10;99.90
16038;DHT22;8123;50.906;6.172;2022-08-11T06:58:00;20.20;99.90
16038;DHT22;8123;50.906;6.172;2022-08-11T07:00:47;20.30;99.90
16038;DHT22;8123;50.906;6.172;2022-08-11T07:03:17;20.40;99.90
16038;DHT22;8123;50.906;6.172;2022-08-11T07:06:24;20.50;99.90
16038;DHT22;8123;50.906;6.172;2022-08-11T07:11:58;20.70;99.90
16038;DHT22;8123;50.906;6.172;2022-08-11T07:14:50;20.80;99.90
16038;DHT22;8123;50.906;6.172;2022-08-11T07:17:42;20.90;99.90
16038;DHT22;8123;50.906;6.172;2022-08-11T07:20:14;21.00;99.90
16038;DHT22;8123;50.906;6.172;2022-08-11T07:23:01;21.10;99.90
16038;DHT22;8123;50.906;6.172;2022-08-11T07:25:50;21.20;99.90
16038;DHT22;8123;50.906;6.172;2022-08-11T07:28:44;21.20;99.90
16038;DHT22;8123;50.906;6.172;2022-08-11T07:31:25;21.30;99.90
16038;DHT22;8123;50.906;6.172;2022-08-11T07:34:12;21.50;99.90
16038;DHT22;8123;50.906;6.172;2022-08-11T07:36:43;21.60;99.90
16038;DHT22;8123;50.906;6.172;2022-08-11T07:39:18;21.70;99.90
16038;DHT22;8123;50.906;6.172;2022-08-11T07:41:45;21.80;99.90
16038;DHT22;8123;50.906;6.172;2022-08-11T07:44:14;21.80;99.90
16038;DHT22;8123;50.906;6.172;2022-08-11T07:46:43;21.90;99.90
16038;DHT22;8123;50.906;6.172;2022-08-11T07:49:34;22.00;99.90
16038;DHT22;8123;50.906;6.172;2022-08-11T07:52:20;22.10;99.90
16038;DHT22;8123;50.906;6.172;2022-08-11T07:55:15;22.30;99.90
16038;DHT22;8123;50.906;6.172;2022-08-11T07:57:44;22.40;99.90
16038;DHT22;8123;50.906;6.172;2022-08-11T08:00:28;22.50;99.90
16038;DHT22;8123;50.906;6.172;2022-08-11T08:03:19;22.60;99.90
16038;DHT22;8123;50.906;6.172;2022-08-11T08:06:04;22.60;99.90
16038;DHT22;8123;50.906;6.172;2022-08-11T08:08:50;22.80;99.90
16038;DHT22;8123;50.906;6.172;2022-08-11T08:11:35;22.90;99.90
16038;DHT22;8123;50.906;6.172;2022-08-11T08:14:20;22.90;99.90
16038;DHT22;8123;50.906;6.172;2022-08-11T08:17:06;23.00;99.90
16038;DHT22;8123;50.906;6.172;2022-08-11T08:19:51;23.00;99.90
16038;DHT22;8123;50.906;6.172;2022-08-11T08:22:18;23.10;99.90
16038;DHT22;8123;50.906;6.172;2022-08-11T08:24:46;23.20;99.90
16038;DHT22;8123;50.906;6.172;2022-08-11T08:27:13;23.20;99.90
16038;DHT22;8123;50.906;6.172;2022-08-11T08:29:40;23.30;99.90
16038;DHT22;8123;50.906;6.172;2022-08-11T08:32:26;23.40;99.90
16038;DHT22;8123;50.906;6.172;2022-08-11T08:34:54;23.50;99.90
16038;DHT22;8123;50.906;6.172;2022-08-11T08:37:24;23.50;99.90
16038;DHT22;8123;50.906;6.172;2022-08-11T08:39:52;23.60;99.90
16038;DHT22;8123;50.906;6.172;2022-08-11T08:42:27;23.60;99.90
16038;DHT22;8123;50.906;6.172;2022-08-11T08:45:23;23.60;99.90
16038;DHT22;8123;50.906;6.172;2022-08-11T08:47:59;23.70;99.90
16038;DHT22;8123;50.906;6.172;2022-08-11T08:50:29;23.80;99.90
16038;DHT22;8123;50.906;6.172;2022-08-11T08:53:20;23.90;99.90
16038;DHT22;8123;50.906;6.172;2022-08-11T08:55:47;24.00;99.90
16038;DHT22;8123;50.906;6.172;2022-08-11T08:58:15;24.10;99.90
16038;DHT22;8123;50.906;6.172;2022-08-11T09:00:45;24.20;99.90
16038;DHT22;8123;50.906;6.172;2022-08-11T09:03:11;24.30;99.90
16038;DHT22;8123;50.906;6.172;2022-08-11T09:05:39;24.40;99.90
16038;DHT22;8123;50.906;6.172;2022-08-11T09:08:05;24.40;99.90
16038;DHT22;8123;50.906;6.172;2022-08-11T09:10:32;24.50;99.90
16038;DHT22;8123;50.906;6.172;2022-08-11T09:12:58;24.60;99.90
16038;DHT22;8123;50.906;6.172;2022-08-11T09:15:25;24.60;99.90
16038;DHT22;8123;50.906;6.172;2022-08-11T09:17:54;24.80;99.90
16038;DHT22;8123;50.906;6.172;2022-08-11T09:20:30;24.80;99.90
16038;DHT22;8123;50.906;6.172;2022-08-11T09:23:04;25.00;99.90
16038;DHT22;8123;50.906;6.172;2022-08-11T09:25:56;25.10;99.90
16038;DHT22;8123;50.906;6.172;2022-08-11T09:28:46;25.10;99.90
16038;DHT22;8123;50.906;6.172;2022-08-11T09:31:13;25.10;99.90
16038;DHT22;8123;50.906;6.172;2022-08-11T09:33:40;25.20;99.90
16038;DHT22;8123;50.906;6.172;2022-08-11T09:36:08;25.30;99.90
16038;DHT22;8123;50.906;6.172;2022-08-11T09:38:52;25.30;99.90
16038;DHT22;8123;50.906;6.172;2022-08-11T09:41:38;25.50;99.90
16038;DHT22;8123;50.906;6.172;2022-08-11T09:44:06;25.70;99.90
16038;DHT22;8123;50.906;6.172;2022-08-11T09:46:52;25.80;99.90
16038;DHT22;8123;50.906;6.172;2022-08-11T09:49:20;25.80;99.90
16038;DHT22;8123;50.906;6.172;2022-08-11T09:51:49;25.90;99.90
16038;DHT22;8123;50.906;6.172;2022-08-11T09:54:15;25.90;99.90
16038;DHT22;8123;50.906;6.172;2022-08-11T09:56:42;25.90;99.90
16038;DHT22;8123;50.906;6.172;2022-08-11T09:59:27;26.00;99.90
16038;DHT22;8123;50.906;6.172;2022-08-11T10:01:57;26.00;99.90
16038;DHT22;8123;50.906;6.172;2022-08-11T10:04:47;26.00;99.90
16038;DHT22;8123;50.906;6.172;2022-08-11T10:07:14;26.10;99.90
16038;DHT22;8123;50.906;6.172;2022-08-11T10:09:58;26.10;99.90
16038;DHT22;8123;50.906;6.172;2022-08-11T10:15:09;26.20;99.90
16038;DHT22;8123;50.906;6.172;2022-08-11T10:17:59;26.40;99.90
16038;DHT22;8123;50.906;6.172;2022-08-11T10:20:46;26.50;99.90
16038;DHT22;8123;50.906;6.172;2022-08-11T10:23:16;26.60;99.90
16038;DHT22;8123;50.906;6.172;2022-08-11T10:26:02;26.50;99.90
16038;DHT22;8123;50.906;6.172;2022-08-11T10:28:47;26.50;99.90
16038;DHT22;8123;50.906;6.172;2022-08-11T10:31:14;26.60;99.50
16038;DHT22;8123;50.906;6.172;2022-08-11T10:33:58;26.60;99.60
16038;DHT22;8123;50.906;6.172;2022-08-11T10:36:31;26.70;97.90
16038;DHT22;8123;50.906;6.172;2022-08-11T10:39:00;26.70;98.30
16038;DHT22;8123;50.906;6.172;2022-08-11T10:41:27;26.80;98.40
16038;DHT22;8123;50.906;6.172;2022-08-11T10:44:12;26.80;98.70
16038;DHT22;8123;50.906;6.172;2022-08-11T10:46:39;26.80;97.50
16038;DHT22;8123;50.906;6.172;2022-08-11T10:49:26;26.80;99.10
16038;DHT22;8123;50.906;6.172;2022-08-11T10:51:54;26.80;97.80
16038;DHT22;8123;50.906;6.172;2022-08-11T10:54:40;26.90;96.50
16038;DHT22;8123;50.906;6.172;2022-08-11T10:57:27;27.00;95.90
16038;DHT22;8123;50.906;6.172;2022-08-11T11:00:13;26.90;98.70
16038;DHT22;8123;50.906;6.172;2022-08-11T11:02:43;27.00;98.00
16038;DHT22;8123;50.906;6.172;2022-08-11T11:05:22;26.90;96.70
16038;DHT22;8123;50.906;6.172;2022-08-11T11:08:11;26.90;99.20
16038;DHT22;8123;50.906;6.172;2022-08-11T11:10:57;27.00;97.60
16038;DHT22;8123;50.906;6.172;2022-08-11T11:13:24;27.10;97.20
16038;DHT22;8123;50.906;6.172;2022-08-11T11:16:09;27.10;95.50
16038;DHT22;8123;50.906;6.172;2022-08-11T11:18:56;27.20;95.40
16038;DHT22;8123;50.906;6.172;2022-08-11T11:21:24;27.30;95.60
16038;DHT22;8123;50.906;6.172;2022-08-11T11:27:04;27.40;93.40
16038;DHT22;8123;50.906;6.172;2022-08-11T11:37:56;27.20;96.00
16038;DHT22;8123;50.906;6.172;2022-08-11T11:40:22;27.30;96.60
16038;DHT22;8123;50.906;6.172;2022-08-11T11:42:52;27.40;93.90
16038;DHT22;8123;50.906;6.172;2022-08-11T11:45:20;27.50;95.30
16038;DHT22;8123;50.906;6.172;2022-08-11T11:47:48;27.60;95.80
16038;DHT22;8123;50.906;6.172;2022-08-11T11:50:28;27.50;94.60
16038;DHT22;8123;50.906;6.172;2022-08-11T11:52:55;27.50;93.90
16038;DHT22;8123;50.906;6.172;2022-08-11T11:55:24;27.40;94.40
16038;DHT22;8123;50.906;6.172;2022-08-11T11:57:53;27.50;96.20
16038;DHT22;8123;50.906;6.172;2022-08-11T12:00:39;27.50;93.70
16038;DHT22;8123;50.906;6.172;2022-08-11T12:03:24;27.60;92.30
16038;DHT22;8123;50.906;6.172;2022-08-11T12:05:51;27.60;93.60
16038;DHT22;8123;50.906;6.172;2022-08-11T12:08:18;27.70;92.60
16038;DHT22;8123;50.906;6.172;2022-08-11T12:10:59;27.90;91.20
16038;DHT22;8123;50.906;6.172;2022-08-11T12:13:46;27.90;90.80
16038;DHT22;8123;50.906;6.172;2022-08-11T12:16:16;27.90;90.20
16038;DHT22;8123;50.906;6.172;2022-08-11T12:18:45;27.80;89.30
16038;DHT22;8123;50.906;6.172;2022-08-11T12:21:13;27.80;89.40
16038;DHT22;8123;50.906;6.172;2022-08-11T12:23:40;27.90;88.00
16038;DHT22;8123;50.906;6.172;2022-08-11T12:26:25;27.90;87.50
16038;DHT22;8123;50.906;6.172;2022-08-11T12:29:10;28.00;87.30
16038;DHT22;8123;50.906;6.172;2022-08-11T12:31:38;28.00;85.80
16038;DHT22;8123;50.906;6.172;2022-08-11T12:34:10;28.00;87.10
16038;DHT22;8123;50.906;6.172;2022-08-11T12:36:37;27.90;87.00
16038;DHT22;8123;50.906;6.172;2022-08-11T12:39:06;27.80;90.50
16038;DHT22;8123;50.906;6.172;2022-08-11T12:41:34;27.70;91.60
16038;DHT22;8123;50.906;6.172;2022-08-11T12:44:20;27.80;89.00
16038;DHT22;8123;50.906;6.172;2022-08-11T12:47:06;27.90;86.90
16038;DHT22;8123;50.906;6.172;2022-08-11T12:49:36;28.10;84.90
16038;DHT22;8123;50.906;6.172;2022-08-11T12:52:25;28.10;85.90
16038;DHT22;8123;50.906;6.172;2022-08-11T12:54:57;28.10;85.50
16038;DHT22;8123;50.906;6.172;2022-08-11T12:57:36;28.00;88.70
16038;DHT22;8123;50.906;6.172;2022-08-11T13:00:21;27.90;85.50
16038;DHT22;8123;50.906;6.172;2022-08-11T13:03:08;27.80;89.20
16038;DHT22;8123;50.906;6.172;2022-08-11T13:05:55;27.90;88.80
16038;DHT22;8123;50.906;6.172;2022-08-11T13:08:22;28.00;86.70
16038;DHT22;8123;50.906;6.172;2022-08-11T13:10:50;28.00;86.50
16038;DHT22;8123;50.906;6.172;2022-08-11T13:13:36;28.10;85.70
16038;DHT22;8123;50.906;6.172;2022-08-11T13:16:02;28.10;89.30
16038;DHT22;8123;50.906;6.172;2022-08-11T13:18:29;28.10;87.50
16038;DHT22;8123;50.906;6.172;2022-08-11T13:20:57;28.10;87.50
16038;DHT22;8123;50.906;6.172;2022-08-11T13:23:25;28.00;85.00
16038;DHT22;8123;50.906;6.172;2022-08-11T13:25:52;28.10;86.90
16038;DHT22;8123;50.906;6.172;2022-08-11T13:28:21;28.20;90.80
16038;DHT22;8123;50.906;6.172;2022-08-11T13:30:49;28.20;88.60
16038;DHT22;8123;50.906;6.172;2022-08-11T13:33:43;28.00;89.70
16038;DHT22;8123;50.906;6.172;2022-08-11T13:36:11;28.10;86.70
16038;DHT22;8123;50.906;6.172;2022-08-11T13:38:39;28.10;90.00
16038;DHT22;8123;50.906;6.172;2022-08-11T13:41:06;28.00;90.20
16038;DHT22;8123;50.906;6.172;2022-08-11T13:43:53;27.90;88.90
16038;DHT22;8123;50.906;6.172;2022-08-11T13:46:21;28.00;90.50
16038;DHT22;8123;50.906;6.172;2022-08-11T13:48:53;28.00;89.00
16038;DHT22;8123;50.906;6.172;2022-08-11T13:51:20;28.20;88.60
16038;DHT22;8123;50.906;6.172;2022-08-11T13:54:10;28.30;84.20
16038;DHT22;8123;50.906;6.172;2022-08-11T13:56:43;28.30;85.80
16038;DHT22;8123;50.906;6.172;2022-08-11T13:59:09;28.40;87.80
16038;DHT22;8123;50.906;6.172;2022-08-11T14:01:38;28.30;87.50
16038;DHT22;8123;50.906;6.172;2022-08-11T14:04:10;28.40;85.10
16038;DHT22;8123;50.906;6.172;2022-08-11T14:06:50;28.40;89.00
16038;DHT22;8123;50.906;6.172;2022-08-11T14:09:24;28.40;85.50
16038;DHT22;8123;50.906;6.172;2022-08-11T14:11:54;28.40;86.60
16038;DHT22;8123;50.906;6.172;2022-08-11T14:14:43;28.30;90.90
16038;DHT22;8123;50.906;6.172;2022-08-11T14:17:12;28.20;89.90
16038;DHT22;8123;50.906;6.172;2022-08-11T14:19:39;28.20;83.40
16038;DHT22;8123;50.906;6.172;2022-08-11T14:22:06;28.40;83.90
16038;DHT22;8123;50.906;6.172;2022-08-11T14:24:40;28.30;89.80
16038;DHT22;8123;50.906;6.172;2022-08-11T14:27:09;28.20;89.30
16038;DHT22;8123;50.906;6.172;2022-08-11T14:29:38;28.00;91.70
16038;DHT22;8123;50.906;6.172;2022-08-11T14:32:07;28.00;84.00
16038;DHT22;8123;50.906;6.172;2022-08-11T14:34:37;28.20;90.60
16038;DHT22;8123;50.906;6.172;2022-08-11T14:37:07;28.20;87.10
16038;DHT22;8123;50.906;6.172;2022-08-11T14:40:00;28.40;84.10
16038;DHT22;8123;50.906;6.172;2022-08-11T14:42:25;28.60;83.20
16038;DHT22;8123;50.906;6.172;2022-08-11T14:45:15;28.60;83.20
16038;DHT22;8123;50.906;6.172;2022-08-11T14:48:02;28.90;82.50
16038;DHT22;8123;50.906;6.172;2022-08-11T14:50:32;28.50;83.80
16038;DHT22;8123;50.906;6.172;2022-08-11T14:53:00;28.60;79.60
16038;DHT22;8123;50.906;6.172;2022-08-11T14:55:31;28.70;79.10
16038;DHT22;8123;50.906;6.172;2022-08-11T14:58:19;28.70;81.20
16038;DHT22;8123;50.906;6.172;2022-08-11T15:00:48;28.70;83.60
16038;DHT22;8123;50.906;6.172;2022-08-11T15:03:15;28.70;80.60
16038;DHT22;8123;50.906;6.172;2022-08-11T15:05:56;28.70;78.40
16038;DHT22;8123;50.906;6.172;2022-08-11T15:08:27;28.70;82.30
16038;DHT22;8123;50.906;6.172;2022-08-11T15:11:13;28.60;78.40
16038;DHT22;8123;50.906;6.172;2022-08-11T15:14:03;28.80;77.40
16038;DHT22;8123;50.906;6.172;2022-08-11T15:16:30;29.00;76.40
16038;DHT22;8123;50.906;6.172;2022-08-11T15:19:16;29.00;78.40
16038;DHT22;8123;50.906;6.172;2022-08-11T15:21:46;28.90;79.20
16038;DHT22;8123;50.906;6.172;2022-08-11T15:24:31;28.90;76.80
16038;DHT22;8123;50.906;6.172;2022-08-11T15:27:02;28.90;79.20
16038;DHT22;8123;50.906;6.172;2022-08-11T15:29:48;29.00;79.60
16038;DHT22;8123;50.906;6.172;2022-08-11T15:32:34;29.20;75.30
16038;DHT22;8123;50.906;6.172;2022-08-11T15:35:20;29.10;78.40
16038;DHT22;8123;50.906;6.172;2022-08-11T15:38:06;29.20;74.50
16038;DHT22;8123;50.906;6.172;2022-08-11T15:40:38;29.30;74.90
16038;DHT22;8123;50.906;6.172;2022-08-11T15:43:38;29.40;72.80
16038;DHT22;8123;50.906;6.172;2022-08-11T15:46:40;29.40;75.10
16038;DHT22;8123;50.906;6.172;2022-08-11T15:51:55;29.50;72.40
16038;DHT22;8123;50.906;6.172;2022-08-11T15:54:24;29.70;71.00
16038;DHT22;8123;50.906;6.172;2022-08-11T15:56:52;29.70;74.90
16038;DHT22;8123;50.906;6.172;2022-08-11T15:59:20;29.70;74.10
16038;DHT22;8123;50.906;6.172;2022-08-11T16:02:08;29.90;72.40
16038;DHT22;8123;50.906;6.172;2022-08-11T16:04:54;30.10;71.20
16038;DHT22;8123;50.906;6.172;2022-08-11T16:07:24;30.30;69.10
16038;DHT22;8123;50.906;6.172;2022-08-11T16:10:06;30.60;67.30
16038;DHT22;8123;50.906;6.172;2022-08-11T16:15:48;30.90;66.10
16038;DHT22;8123;50.906;6.172;2022-08-11T16:18:37;31.10;68.40
16038;DHT22;8123;50.906;6.172;2022-08-11T16:21:10;31.10;68.20
16038;DHT22;8123;50.906;6.172;2022-08-11T16:23:38;31.10;68.90
16038;DHT22;8123;50.906;6.172;2022-08-11T16:26:05;31.00;63.60
16038;DHT22;8123;50.906;6.172;2022-08-11T16:28:33;31.00;63.40
16038;DHT22;8123;50.906;6.172;2022-08-11T16:31:00;31.10;70.40
16038;DHT22;8123;50.906;6.172;2022-08-11T16:33:28;31.10;65.80
16038;DHT22;8123;50.906;6.172;2022-08-11T16:35:55;31.10;64.60
16038;DHT22;8123;50.906;6.172;2022-08-11T16:38:42;31.00;63.10
16038;DHT22;8123;50.906;6.172;2022-08-11T16:41:10;30.90;64.20
16038;DHT22;8123;50.906;6.172;2022-08-11T16:43:44;30.80;62.80
16038;DHT22;8123;50.906;6.172;2022-08-11T16:46:29;30.80;62.70
16038;DHT22;8123;50.906;6.172;2022-08-11T16:49:32;30.70;64.20
16038;DHT22;8123;50.906;6.172;2022-08-11T16:51:59;30.70;63.80
16038;DHT22;8123;50.906;6.172;2022-08-11T16:54:29;30.70;64.90
16038;DHT22;8123;50.906;6.172;2022-08-11T16:56:56;30.60;65.10
16038;DHT22;8123;50.906;6.172;2022-08-11T16:59:44;30.50;63.20
16038;DHT22;8123;50.906;6.172;2022-08-11T17:02:17;30.40;63.40
16038;DHT22;8123;50.906;6.172;2022-08-11T17:05:17;30.20;69.20
16038;DHT22;8123;50.906;6.172;2022-08-11T17:08:04;30.00;66.00
16038;DHT22;8123;50.906;6.172;2022-08-11T17:10:56;29.90;67.40
16038;DHT22;8123;50.906;6.172;2022-08-11T17:13:51;29.70;65.90
16038;DHT22;8123;50.906;6.172;2022-08-11T17:16:22;29.60;70.50
16038;DHT22;8123;50.906;6.172;2022-08-11T17:19:09;29.50;66.60
16038;DHT22;8123;50.906;6.172;2022-08-11T17:21:40;29.20;67.40
16038;DHT22;8123;50.906;6.172;2022-08-11T17:24:44;29.30;72.50
16038;DHT22;8123;50.906;6.172;2022-08-11T17:27:14;29.10;67.70
16038;DHT22;8123;50.906;6.172;2022-08-11T17:32:15;28.90;69.60
16038;DHT22;8123;50.906;6.172;2022-08-11T17:35:22;29.00;68.00
16038;DHT22;8123;50.906;6.172;2022-08-11T17:38:11;29.00;67.70
16038;DHT22;8123;50.906;6.172;2022-08-11T17:40:48;28.90;73.00
16038;DHT22;8123;50.906;6.172;2022-08-11T17:43:33;28.70;68.50
16038;DHT22;8123;50.906;6.172;2022-08-11T17:46:17;28.60;69.10
16038;DHT22;8123;50.906;6.172;2022-08-11T17:49:04;28.70;69.20
16038;DHT22;8123;50.906;6.172;2022-08-11T17:51:34;28.60;69.20
16038;DHT22;8123;50.906;6.172;2022-08-11T17:54:20;28.50;73.10
16038;DHT22;8123;50.906;6.172;2022-08-11T17:57:07;28.40;70.50
16038;DHT22;8123;50.906;6.172;2022-08-11T17:59:53;28.20;73.20
16038;DHT22;8123;50.906;6.172;2022-08-11T18:02:30;28.30;74.30
16038;DHT22;8123;50.906;6.172;2022-08-11T18:05:17;28.40;75.00
16038;DHT22;8123;50.906;6.172;2022-08-11T18:07:45;28.30;74.10
16038;DHT22;8123;50.906;6.172;2022-08-11T18:10:32;28.20;74.90
16038;DHT22;8123;50.906;6.172;2022-08-11T18:13:20;28.20;74.20
16038;DHT22;8123;50.906;6.172;2022-08-11T18:16:05;28.10;76.10
16038;DHT22;8123;50.906;6.172;2022-08-11T18:18:50;28.10;75.30
16038;DHT22;8123;50.906;6.172;2022-08-11T18:21:35;28.10;75.80
16038;DHT22;8123;50.906;6.172;2022-08-11T18:24:22;28.00;75.80
16038;DHT22;8123;50.906;6.172;2022-08-11T18:27:10;28.00;76.10
16038;DHT22;8123;50.906;6.172;2022-08-11T18:29:59;27.90;75.80
16038;DHT22;8123;50.906;6.172;2022-08-11T18:32:45;27.90;76.50
16038;DHT22;8123;50.906;6.172;2022-08-11T18:35:31;27.80;76.20
16038;DHT22;8123;50.906;6.172;2022-08-11T18:38:17;27.70;77.40
16038;DHT22;8123;50.906;6.172;2022-08-11T18:41:02;27.60;77.00
16038;DHT22;8123;50.906;6.172;2022-08-11T18:43:49;27.50;77.80
16038;DHT22;8123;50.906;6.172;2022-08-11T18:46:36;27.40;77.40
16038;DHT22;8123;50.906;6.172;2022-08-11T18:49:24;27.30;77.60
16038;DHT22;8123;50.906;6.172;2022-08-11T18:52:10;27.20;78.00
16038;DHT22;8123;50.906;6.172;2022-08-11T18:54:58;27.10;77.90
16038;DHT22;8123;50.906;6.172;2022-08-11T18:57:46;27.00;77.80
16038;DHT22;8123;50.906;6.172;2022-08-11T19:00:32;27.00;77.70
16038;DHT22;8123;50.906;6.172;2022-08-11T19:03:17;26.90;77.50
16038;DHT22;8123;50.906;6.172;2022-08-11T19:06:05;26.80;78.00
16038;DHT22;8123;50.906;6.172;2022-08-11T19:08:53;26.80;78.30
16038;DHT22;8123;50.906;6.172;2022-08-11T19:11:38;26.70;78.30
16038;DHT22;8123;50.906;6.172;2022-08-11T19:14:24;26.60;79.00
16038;DHT22;8123;50.906;6.172;2022-08-11T19:17:10;26.40;79.30
16038;DHT22;8123;50.906;6.172;2022-08-11T19:19:56;26.40;79.50
16038;DHT22;8123;50.906;6.172;2022-08-11T19:22:42;26.30;80.30
16038;DHT22;8123;50.906;6.172;2022-08-11T19:25:26;26.10;80.70
16038;DHT22;8123;50.906;6.172;2022-08-11T19:28:12;26.00;81.30
16038;DHT22;8123;50.906;6.172;2022-08-11T19:30:57;25.90;81.40
16038;DHT22;8123;50.906;6.172;2022-08-11T19:33:43;25.80;82.40
16038;DHT22;8123;50.906;6.172;2022-08-11T19:36:28;25.70;82.20
16038;DHT22;8123;50.906;6.172;2022-08-11T19:39:14;25.70;83.00
16038;DHT22;8123;50.906;6.172;2022-08-11T19:41:59;25.60;82.60
16038;DHT22;8123;50.906;6.172;2022-08-11T19:44:44;25.60;83.20
16038;DHT22;8123;50.906;6.172;2022-08-11T19:47:29;25.50;83.40
16038;DHT22;8123;50.906;6.172;2022-08-11T19:50:15;25.50;84.00
16038;DHT22;8123;50.906;6.172;2022-08-11T19:53:01;25.30;84.30
16038;DHT22;8123;50.906;6.172;2022-08-11T19:55:48;25.20;84.50
16038;DHT22;8123;50.906;6.172;2022-08-11T19:58:35;25.10;84.50
16038;DHT22;8123;50.906;6.172;2022-08-11T20:01:20;25.10;85.70
16038;DHT22;8123;50.906;6.172;2022-08-11T20:04:04;25.00;85.70
16038;DHT22;8123;50.906;6.172;2022-08-11T20:06:51;24.90;86.20
16038;DHT22;8123;50.906;6.172;2022-08-11T20:09:36;24.90;86.70
16038;DHT22;8123;50.906;6.172;2022-08-11T20:12:22;24.70;87.70
16038;DHT22;8123;50.906;6.172;2022-08-11T20:15:10;24.70;87.20
16038;DHT22;8123;50.906;6.172;2022-08-11T20:17:55;24.60;87.80
16038;DHT22;8123;50.906;6.172;2022-08-11T20:20:40;24.50;89.20
16038;DHT22;8123;50.906;6.172;2022-08-11T20:23:25;24.30;89.10
16038;DHT22;8123;50.906;6.172;2022-08-11T20:26:10;24.20;90.10
16038;DHT22;8123;50.906;6.172;2022-08-11T20:28:55;24.10;90.40
16038;DHT22;8123;50.906;6.172;2022-08-11T20:31:40;24.10;91.90
16038;DHT22;8123;50.906;6.172;2022-08-11T20:34:25;24.00;90.90
16038;DHT22;8123;50.906;6.172;2022-08-11T20:37:10;24.00;90.90